KBYH/BYH METAR and TAF weather

Enter ICAO airport designator
Station Type Date Time Source
KBYH METAR 2021/07/20 17:50 UTC NOAA

KBYH 201750Z 06009G15KT 9SM FEW032 SCT250 29/21 A3003


Station Type Date Time Source
KBYH Decoded METAR 2021/07/20 17:50 UTC NOAA

Eaker Air Force Base, AR, United States (KBYH) 35-58N 089-57W
Jul 20, 2021 - 01:50 PM EDT / 2021.07.20 1750 UTC
Wind: from the ENE (060 degrees) at 10 MPH (9 KT) gusting to 17 MPH (15 KT):0
Visibility: 9 mile(s):0
Sky conditions: partly cloudy
Temperature: 84 F (29 C)
Dew Point: 69 F (21 C)
Relative Humidity: 62%
Pressure (altimeter): 30.03 in. Hg (1016 hPa)
ob: KBYH 201750Z 06009G15KT 9SM FEW032 SCT250 29/21 A3003
cycle: 18

Station Type Date Time Source
KBYH TAF UTC NOAA

Error!

Example: see airport list